Paredes Garcia — EA2886 — position and weather

sailwx.info

Track history (hours):
 
Tides and Currents Weather Stations Pressure Air Temp Water Temp Dewpoint Dewpoint Depression Visibility Wind Speed Wind Dir Waves Ship Positions

Paredes Garcia

Last reported at 2018-Feb-20 04:51 UTC. Time now 2018-Feb-20 05:15 UTC.
Position N 38°02' W 000°37'.

Length 19 m.

Type: Fishing. MMSI: 224020840.

Date/timePositionNaut miles runAvg speedWind from/ knotsBaromVisibWave heightAir tempDewpointWater temp
2018-Feb-20 04:51N 38°02' W 000°37'1 0.5
2018-Feb-20 03:33N 38°01' W 000°36'0 0.1
2018-Feb-20 03:22N 38°01' W 000°36'2 0.4
2018-Feb-19 23:22N 38°03' W 000°35'1 0.6
2018-Feb-19 20:50N 38°01' W 000°35'0 0.2
2018-Feb-19 20:26N 38°01' W 000°35'2 4.8
2018-Feb-19 20:00N 37°60' W 000°36'2 3.1
2018-Feb-19 19:29N 37°58' W 000°37'3 0.3
2018-Feb-19 09:08N 37°58' W 000°41'0 0.1
2018-Feb-19 08:48N 37°58' W 000°41'0 0.0
2018-Feb-19 08:22N 37°58' W 000°41'0 0.1
2018-Feb-19 07:58N 37°58' W 000°41'1 1.3
2018-Feb-19 07:30N 37°58' W 000°41'7 3.6
2018-Feb-19 05:42N 38°02' W 000°35'2 8.3
2018-Feb-19 05:29N 38°00' W 000°34'4 8.2
2018-Feb-19 05:00N 37°57' W 000°32'4 8.3
2018-Feb-19 04:30N 37°53' W 000°31'3 5.3
2018-Feb-19 04:00N 37°55' W 000°32'5 8.1
2018-Feb-19 03:21N 38°00' W 000°33'1 0.5
2018-Feb-19 00:14N 38°01' W 000°35'1 4.2
2018-Feb-18 23:59N 37°60' W 000°35'2 4.5
2018-Feb-18 23:29N 37°58' W 000°37'0 0.4
2018-Feb-18 23:00N 37°58' W 000°37'3 5.4
2018-Feb-18 22:29N 37°58' W 000°40'  
2018-Feb-16 05:53N 37°58' W 000°41'0 0.1
2018-Feb-16 05:27N 37°58' W 000°41'4 7.9
2018-Feb-16 04:58N 37°56' W 000°37'3 5.0
2018-Feb-16 04:26N 37°54' W 000°34'4 8.8
2018-Feb-16 04:00N 37°58' W 000°34'3 1.0
2018-Feb-16 01:05N 38°01' W 000°33'0 0.9
2018-Feb-16 00:52N 38°01' W 000°33'1 3.8
2018-Feb-16 00:30N 38°00' W 000°34'4 7.4
2018-Feb-16 00:00N 37°57' W 000°35'0 0.3
2018-Feb-15 23:30N 37°57' W 000°35'0 0.5
2018-Feb-15 23:01N 37°57' W 000°35'2 4.5
2018-Feb-15 22:30N 37°56' W 000°38'0 0.3
2018-Feb-15 21:37N 37°56' W 000°38'0 1.2
2018-Feb-15 21:26N 37°56' W 000°37'0 0.3
2018-Feb-15 21:00N 37°56' W 000°37'1 1.4
2018-Feb-15 20:30N 37°57' W 000°38'1 1.5
2018-Feb-15 20:01N 37°56' W 000°38'0 0.3
2018-Feb-15 19:31N 37°56' W 000°38'3 6.7
2018-Feb-15 19:01N 37°58' W 000°41'0 0.0
2018-Feb-15 05:45N 37°58' W 000°41'0 0.2
2018-Feb-15 05:29N 37°58' W 000°41'0 0.0
2018-Feb-15 05:00N 37°58' W 000°41'0 0.0
2018-Feb-15 04:30N 37°58' W 000°41'0 0.0
2018-Feb-15 04:00N 37°58' W 000°41'3 5.4
2018-Feb-15 03:26N 37°57' W 000°37'1 2.0
2018-Feb-15 02:51N 37°57' W 000°36'0 0.7
2018-Feb-15 02:22N 37°57' W 000°36'0 0.7
2018-Feb-15 01:53N 37°57' W 000°36'0 0.8
2018-Feb-15 01:30N 37°57' W 000°36'0 0.5
2018-Feb-15 00:59N 37°57' W 000°36'1 1.7
2018-Feb-15 00:25N 37°57' W 000°37'0 0.0
2018-Feb-14 23:55N 37°57' W 000°37'0 0.5
2018-Feb-14 23:28N 37°57' W 000°37'0 0.4
2018-Feb-14 22:58N 37°57' W 000°37'1 1.3
2018-Feb-14 22:23N 37°56' W 000°37'0 0.3
2018-Feb-14 21:37N 37°56' W 000°37'0 0.3
2018-Feb-14 21:25N 37°56' W 000°37'0 0.5
2018-Feb-14 20:59N 37°56' W 000°37'0 0.3
2018-Feb-14 20:23N 37°56' W 000°37'0 0.4
2018-Feb-14 20:00N 37°56' W 000°37'4 7.5
2018-Feb-14 19:30N 37°58' W 000°41'0 0.0
2018-Feb-14 09:15N 37°58' W 000°41'0 0.0
2018-Feb-14 09:00N 37°58' W 000°41'0 0.0
2018-Feb-14 08:24N 37°58' W 000°41'0 0.0
2018-Feb-14 08:00N 37°58' W 000°41'0 0.1
2018-Feb-14 07:29N 37°58' W 000°41'3 6.9
2018-Feb-14 07:00N 37°56' W 000°39'3 6.3
2018-Feb-14 06:30N 37°53' W 000°36'0 0.2
2018-Feb-14 06:00N 37°53' W 000°37'1 2.2
2018-Feb-14 05:28N 37°54' W 000°36'0 0.1
2018-Feb-14 04:59N 37°54' W 000°36'0 0.8
2018-Feb-14 04:30N 37°54' W 000°36'2 2.8
2018-Feb-14 03:54N 37°56' W 000°37'0 0.2
2018-Feb-14 03:30N 37°56' W 000°37'0 0.8
2018-Feb-14 03:00N 37°56' W 000°37'0 0.3
2018-Feb-14 02:30N 37°56' W 000°37'0 0.5
2018-Feb-14 02:00N 37°56' W 000°37'0 0.2
2018-Feb-14 01:30N 37°56' W 000°37'2 3.5
2018-Feb-14 00:56N 37°58' W 000°38'0 0.3
2018-Feb-14 00:30N 37°58' W 000°38'0 0.2
2018-Feb-13 23:54N 37°58' W 000°38'0 0.6
2018-Feb-13 23:30N 37°58' W 000°39'0 0.7
2018-Feb-13 23:00N 37°57' W 000°38'1 2.0
2018-Feb-13 22:30N 37°57' W 000°38'0 0.0
2018-Feb-13 21:37N 37°57' W 000°38'0 1.3
2018-Feb-13 21:24N 37°56' W 000°38'0 0.7
2018-Feb-13 21:00N 37°57' W 000°38'1 1.1
2018-Feb-13 20:30N 37°57' W 000°39'2 0.3
2018-Feb-13 10:46N 37°58' W 000°41'0 0.0
2018-Feb-13 07:40N 37°58' W 000°41'0 0.0
2018-Feb-13 07:30N 37°58' W 000°41'1 1.6
2018-Feb-13 07:00N 37°58' W 000°41'2 1.5
2018-Feb-13 05:52N 37°57' W 000°39'1 1.1
2018-Feb-13 04:59N 37°57' W 000°38'0 0.8
2018-Feb-13 04:29N 37°57' W 000°38'0 0.5
2018-Feb-13 04:00N 37°57' W 000°38'0 0.5
2018-Feb-13 03:30N 37°57' W 000°38'0 0.5
2018-Feb-13 02:59N 37°57' W 000°38'0 0.4
2018-Feb-13 02:30N 37°57' W 000°38'0 0.8
2018-Feb-13 02:00N 37°57' W 000°38'0 0.5
2018-Feb-13 01:30N 37°57' W 000°38'0 0.6
2018-Feb-13 01:00N 37°57' W 000°38'1 2.3
2018-Feb-13 00:30N 37°57' W 000°37'0 0.4
2018-Feb-13 00:00N 37°57' W 000°37'0 0.5
2018-Feb-12 23:30N 37°57' W 000°37'0 0.6
2018-Feb-12 23:00N 37°57' W 000°37'2 3.5
2018-Feb-12 22:30N 37°58' W 000°35'0 0.2
2018-Feb-12 21:36N 37°58' W 000°35'0 0.3
2018-Feb-12 21:30N 37°58' W 000°35'0 0.2
2018-Feb-12 20:52N 37°58' W 000°35'0 0.1
2018-Feb-12 20:17N 37°58' W 000°35'1 3.3
2018-Feb-12 20:00N 37°58' W 000°36'3 6.5
2018-Feb-12 19:30N 37°58' W 000°40'1 0.9
2018-Feb-12 18:26N 37°58' W 000°41'0 0.0
2018-Feb-12 17:52N 37°58' W 000°41'0 0.0
2018-Feb-12 15:17N 37°58' W 000°41'0 0.0
2018-Feb-12 15:00N 37°58' W 000°41'0 0.0
2018-Feb-12 14:30N 37°58' W 000°41'0 0.0
2018-Feb-12 13:58N 37°58' W 000°41'0 0.0
2018-Feb-12 13:30N 37°58' W 000°41'0 0.0
2018-Feb-12 12:58N 37°58' W 000°41'0 0.0
2018-Feb-12 12:27N 37°58' W 000°41'0 0.0
2018-Feb-12 12:00N 37°58' W 000°41'0 0.0
2018-Feb-12 11:11N 37°58' W 000°41'0 0.0
2018-Feb-12 10:47N 37°58' W 000°41'0 0.0
2018-Feb-12 10:26N 37°58' W 000°41'0 0.0
2018-Feb-12 09:59N 37°58' W 000°41'0 0.0
2018-Feb-12 09:29N 37°58' W 000°41'  
Track history (hours):
 
Tides and Currents Weather Stations Pressure Air Temp Water Temp Dewpoint Dewpoint Depression Visibility Wind Speed Wind Dir Waves Ship Positions

Paredes Garcia

Last reported at 2018-Feb-20 04:51 UTC. Time now 2018-Feb-20 05:15 UTC.
Position N 38°02' W 000°37'.

Length 19 m.

Type: Fishing. MMSI: 224020840.

Date/timePositionNaut miles runAvg speedWind from/ knotsBaromVisibWave heightAir tempDewpointWater temp
2018-Feb-20 04:51N 38°02' W 000°37'1 0.5
2018-Feb-20 03:33N 38°01' W 000°36'0 0.1
2018-Feb-20 03:22N 38°01' W 000°36'2 0.4
2018-Feb-19 23:22N 38°03' W 000°35'1 0.6
2018-Feb-19 20:50N 38°01' W 000°35'0 0.2
2018-Feb-19 20:26N 38°01' W 000°35'2 4.8
2018-Feb-19 20:00N 37°60' W 000°36'2 3.1
2018-Feb-19 19:29N 37°58' W 000°37'3 0.3
2018-Feb-19 09:08N 37°58' W 000°41'0 0.1
2018-Feb-19 08:48N 37°58' W 000°41'0 0.0
2018-Feb-19 08:22N 37°58' W 000°41'0 0.1
2018-Feb-19 07:58N 37°58' W 000°41'1 1.3
2018-Feb-19 07:30N 37°58' W 000°41'7 3.6
2018-Feb-19 05:42N 38°02' W 000°35'2 8.3
2018-Feb-19 05:29N 38°00' W 000°34'4 8.2
2018-Feb-19 05:00N 37°57' W 000°32'4 8.3
2018-Feb-19 04:30N 37°53' W 000°31'3 5.3
2018-Feb-19 04:00N 37°55' W 000°32'5 8.1
2018-Feb-19 03:21N 38°00' W 000°33'1 0.5
2018-Feb-19 00:14N 38°01' W 000°35'1 4.2
2018-Feb-18 23:59N 37°60' W 000°35'2 4.5
2018-Feb-18 23:29N 37°58' W 000°37'0 0.4
2018-Feb-18 23:00N 37°58' W 000°37'3 5.4
2018-Feb-18 22:29N 37°58' W 000°40'  
2018-Feb-16 05:53N 37°58' W 000°41'0 0.1
2018-Feb-16 05:27N 37°58' W 000°41'4 7.9
2018-Feb-16 04:58N 37°56' W 000°37'3 5.0
2018-Feb-16 04:26N 37°54' W 000°34'4 8.8
2018-Feb-16 04:00N 37°58' W 000°34'3 1.0
2018-Feb-16 01:05N 38°01' W 000°33'0 0.9
2018-Feb-16 00:52N 38°01' W 000°33'1 3.8
2018-Feb-16 00:30N 38°00' W 000°34'4 7.4
2018-Feb-16 00:00N 37°57' W 000°35'0 0.3
2018-Feb-15 23:30N 37°57' W 000°35'0 0.5
2018-Feb-15 23:01N 37°57' W 000°35'2 4.5
2018-Feb-15 22:30N 37°56' W 000°38'0 0.3
2018-Feb-15 21:37N 37°56' W 000°38'0 1.2
2018-Feb-15 21:26N 37°56' W 000°37'0 0.3
2018-Feb-15 21:00N 37°56' W 000°37'1 1.4
2018-Feb-15 20:30N 37°57' W 000°38'1 1.5
2018-Feb-15 20:01N 37°56' W 000°38'0 0.3
2018-Feb-15 19:31N 37°56' W 000°38'3 6.7
2018-Feb-15 19:01N 37°58' W 000°41'0 0.0
2018-Feb-15 05:45N 37°58' W 000°41'0 0.2
2018-Feb-15 05:29N 37°58' W 000°41'0 0.0
2018-Feb-15 05:00N 37°58' W 000°41'0 0.0
2018-Feb-15 04:30N 37°58' W 000°41'0 0.0
2018-Feb-15 04:00N 37°58' W 000°41'3 5.4
2018-Feb-15 03:26N 37°57' W 000°37'1 2.0
2018-Feb-15 02:51N 37°57' W 000°36'0 0.7
2018-Feb-15 02:22N 37°57' W 000°36'0 0.7
2018-Feb-15 01:53N 37°57' W 000°36'0 0.8
2018-Feb-15 01:30N 37°57' W 000°36'0 0.5
2018-Feb-15 00:59N 37°57' W 000°36'1 1.7
2018-Feb-15 00:25N 37°57' W 000°37'0 0.0
2018-Feb-14 23:55N 37°57' W 000°37'0 0.5
2018-Feb-14 23:28N 37°57' W 000°37'0 0.4
2018-Feb-14 22:58N 37°57' W 000°37'1 1.3
2018-Feb-14 22:23N 37°56' W 000°37'0 0.3
2018-Feb-14 21:37N 37°56' W 000°37'0 0.3
2018-Feb-14 21:25N 37°56' W 000°37'0 0.5
2018-Feb-14 20:59N 37°56' W 000°37'0 0.3
2018-Feb-14 20:23N 37°56' W 000°37'0 0.4
2018-Feb-14 20:00N 37°56' W 000°37'4 7.5
2018-Feb-14 19:30N 37°58' W 000°41'0 0.0
2018-Feb-14 09:15N 37°58' W 000°41'0 0.0
2018-Feb-14 09:00N 37°58' W 000°41'0 0.0
2018-Feb-14 08:24N 37°58' W 000°41'0 0.0
2018-Feb-14 08:00N 37°58' W 000°41'0 0.1
2018-Feb-14 07:29N 37°58' W 000°41'3 6.9
2018-Feb-14 07:00N 37°56' W 000°39'3 6.3
2018-Feb-14 06:30N 37°53' W 000°36'0 0.2
2018-Feb-14 06:00N 37°53' W 000°37'1 2.2
2018-Feb-14 05:28N 37°54' W 000°36'0 0.1
2018-Feb-14 04:59N 37°54' W 000°36'0 0.8
2018-Feb-14 04:30N 37°54' W 000°36'2 2.8
2018-Feb-14 03:54N 37°56' W 000°37'0 0.2
2018-Feb-14 03:30N 37°56' W 000°37'0 0.8
2018-Feb-14 03:00N 37°56' W 000°37'0 0.3
2018-Feb-14 02:30N 37°56' W 000°37'0 0.5
2018-Feb-14 02:00N 37°56' W 000°37'0 0.2
2018-Feb-14 01:30N 37°56' W 000°37'2 3.5
2018-Feb-14 00:56N 37°58' W 000°38'0 0.3
2018-Feb-14 00:30N 37°58' W 000°38'0 0.2
2018-Feb-13 23:54N 37°58' W 000°38'0 0.6
2018-Feb-13 23:30N 37°58' W 000°39'0 0.7
2018-Feb-13 23:00N 37°57' W 000°38'1 2.0
2018-Feb-13 22:30N 37°57' W 000°38'0 0.0
2018-Feb-13 21:37N 37°57' W 000°38'0 1.3
2018-Feb-13 21:24N 37°56' W 000°38'0 0.7
2018-Feb-13 21:00N 37°57' W 000°38'1 1.1
2018-Feb-13 20:30N 37°57' W 000°39'2 0.3
2018-Feb-13 10:46N 37°58' W 000°41'0 0.0
2018-Feb-13 07:40N 37°58' W 000°41'0 0.0
2018-Feb-13 07:30N 37°58' W 000°41'1 1.6
2018-Feb-13 07:00N 37°58' W 000°41'2 1.5
2018-Feb-13 05:52N 37°57' W 000°39'1 1.1
2018-Feb-13 04:59N 37°57' W 000°38'0 0.8
2018-Feb-13 04:29N 37°57' W 000°38'0 0.5
2018-Feb-13 04:00N 37°57' W 000°38'0 0.5
2018-Feb-13 03:30N 37°57' W 000°38'0 0.5
2018-Feb-13 02:59N 37°57' W 000°38'0 0.4
2018-Feb-13 02:30N 37°57' W 000°38'0 0.8
2018-Feb-13 02:00N 37°57' W 000°38'0 0.5
2018-Feb-13 01:30N 37°57' W 000°38'0 0.6
2018-Feb-13 01:00N 37°57' W 000°38'1 2.3
2018-Feb-13 00:30N 37°57' W 000°37'0 0.4
2018-Feb-13 00:00N 37°57' W 000°37'0 0.5
2018-Feb-12 23:30N 37°57' W 000°37'0 0.6
2018-Feb-12 23:00N 37°57' W 000°37'2 3.5
2018-Feb-12 22:30N 37°58' W 000°35'0 0.2
2018-Feb-12 21:36N 37°58' W 000°35'0 0.3
2018-Feb-12 21:30N 37°58' W 000°35'0 0.2
2018-Feb-12 20:52N 37°58' W 000°35'0 0.1
2018-Feb-12 20:17N 37°58' W 000°35'1 3.3
2018-Feb-12 20:00N 37°58' W 000°36'3 6.5
2018-Feb-12 19:30N 37°58' W 000°40'1 0.9
2018-Feb-12 18:26N 37°58' W 000°41'0 0.0
2018-Feb-12 17:52N 37°58' W 000°41'0 0.0
2018-Feb-12 15:17N 37°58' W 000°41'0 0.0
2018-Feb-12 15:00N 37°58' W 000°41'0 0.0
2018-Feb-12 14:30N 37°58' W 000°41'0 0.0
2018-Feb-12 13:58N 37°58' W 000°41'0 0.0
2018-Feb-12 13:30N 37°58' W 000°41'0 0.0
2018-Feb-12 12:58N 37°58' W 000°41'0 0.0
2018-Feb-12 12:27N 37°58' W 000°41'0 0.0
2018-Feb-12 12:00N 37°58' W 000°41'0 0.0
2018-Feb-12 11:11N 37°58' W 000°41'0 0.0
2018-Feb-12 10:47N 37°58' W 000°41'0 0.0
2018-Feb-12 10:26N 37°58' W 000°41'0 0.0
2018-Feb-12 09:59N 37°58' W 000°41'0 0.0
2018-Feb-12 09:29N 37°58' W 000°41'  

Dump ship's entire track history